createdAt,value
2022-11-05T00:00:22.066Z,11.29
2022-11-05T00:03:08.240Z,11.30
2022-11-05T00:05:53.638Z,11.31
2022-11-05T00:08:40.682Z,11.32
2022-11-05T00:11:11.479Z,11.33
2022-11-05T00:13:59.424Z,11.31
2022-11-05T00:16:45.528Z,11.32
2022-11-05T00:19:15.028Z,11.32
2022-11-05T00:22:00.670Z,11.32
2022-11-05T00:24:47.276Z,11.30
2022-11-05T00:27:15.527Z,11.25
2022-11-05T00:29:44.446Z,11.24
2022-11-05T00:32:12.458Z,11.25
2022-11-05T00:34:40.489Z,11.25
2022-11-05T00:37:08.398Z,11.28
2022-11-05T00:39:38.197Z,11.31
2022-11-05T00:42:23.952Z,11.30
2022-11-05T00:45:02.159Z,11.30
2022-11-05T00:47:47.842Z,11.27
2022-11-05T00:50:16.210Z,11.27
2022-11-05T00:52:59.822Z,11.27
2022-11-05T00:55:39.760Z,11.31
2022-11-05T00:58:10.277Z,11.31
2022-11-05T01:00:40.137Z,11.33
2022-11-05T01:03:10.959Z,11.33
2022-11-05T01:05:44.268Z,11.37
2022-11-05T01:08:13.999Z,11.37
2022-11-05T01:10:44.541Z,11.39
2022-11-05T01:13:14.329Z,11.41
2022-11-05T01:15:43.349Z,11.41
2022-11-05T01:18:11.467Z,11.40
2022-11-05T01:20:39.900Z,11.44
2022-11-05T01:23:13.211Z,11.39
2022-11-05T01:25:43.868Z,11.40
2022-11-05T01:28:12.363Z,11.41
2022-11-05T01:30:42.024Z,11.42
2022-11-05T01:33:10.420Z,11.43
2022-11-05T01:35:44.322Z,11.46
2022-11-05T01:38:12.533Z,11.49
2022-11-05T01:40:45.676Z,11.49
2022-11-05T01:43:17.725Z,11.53
2022-11-05T01:45:48.858Z,11.55
2022-11-05T01:48:19.768Z,11.56
2022-11-05T01:50:58.769Z,11.59
2022-11-05T01:53:31.931Z,11.57
2022-11-05T01:56:08.015Z,11.56
2022-11-05T01:58:41.053Z,11.54
2022-11-05T02:01:09.431Z,11.55
2022-11-05T02:03:37.656Z,11.53
2022-11-05T02:06:09.600Z,11.52
2022-11-05T02:08:54.670Z,11.48
2022-11-05T02:11:24.643Z,11.42
2022-11-05T02:13:52.787Z,11.38
2022-11-05T02:16:34.048Z,11.34
2022-11-05T02:19:16.400Z,11.30
2022-11-05T02:22:18.204Z,11.27
2022-11-05T02:25:12.059Z,11.26
2022-11-05T02:28:12.335Z,11.25
2022-11-05T02:30:49.768Z,11.24
2022-11-05T02:33:30.902Z,11.23
2022-11-05T02:36:19.106Z,11.24
2022-11-05T02:38:54.505Z,11.24
2022-11-05T02:41:31.075Z,11.23
2022-11-05T02:44:09.418Z,11.23
2022-11-05T02:46:49.114Z,11.22
2022-11-05T02:49:25.480Z,11.23
2022-11-05T02:51:58.396Z,11.22
2022-11-05T02:54:30.802Z,11.21
2022-11-05T02:57:03.020Z,11.21
2022-11-05T02:59:31.184Z,11.18
2022-11-05T03:02:02.115Z,11.16
2022-11-05T03:04:32.245Z,11.16
2022-11-05T03:07:17.447Z,11.16
2022-11-05T03:10:09.868Z,11.14
2022-11-05T03:12:52.934Z,11.16
2022-11-05T03:15:32.251Z,11.18
2022-11-05T03:18:08.592Z,11.18
2022-11-05T03:20:41.997Z,11.16
2022-11-05T03:23:17.593Z,11.15
2022-11-05T03:25:50.214Z,11.16
2022-11-05T03:28:23.613Z,11.16
2022-11-05T03:30:53.596Z,11.15
2022-11-05T03:33:29.238Z,11.14
2022-11-05T03:36:02.943Z,11.12
2022-11-05T03:38:36.128Z,11.13
2022-11-05T03:41:08.978Z,11.10
2022-11-05T03:43:41.687Z,11.08
2022-11-05T03:46:14.497Z,11.08
2022-11-05T03:48:48.664Z,11.06
2022-11-05T03:51:26.807Z,11.06
2022-11-05T03:54:09.273Z,11.06
2022-11-05T03:56:42.044Z,11.04
2022-11-05T03:59:12.330Z,11.03
2022-11-05T04:01:40.993Z,11.03
2022-11-05T04:04:11.232Z,11.04
2022-11-05T04:06:56.509Z,11.02
2022-11-05T04:09:42.203Z,11.02
2022-11-05T04:12:28.800Z,11.01
2022-11-05T04:14:56.791Z,10.98
2022-11-05T04:17:23.764Z,10.97
2022-11-05T04:20:10.637Z,10.97
2022-11-05T04:22:56.260Z,10.98
2022-11-05T04:25:24.291Z,10.97
2022-11-05T04:27:52.965Z,10.96
2022-11-05T04:30:21.775Z,10.93
2022-11-05T04:33:01.020Z,10.94
2022-11-05T04:35:33.061Z,10.93
2022-11-05T04:38:01.304Z,10.95
2022-11-05T04:40:29.555Z,10.94
2022-11-05T04:42:58.486Z,10.97
2022-11-05T04:45:29.031Z,10.96
2022-11-05T04:47:57.012Z,10.96
2022-11-05T04:50:25.362Z,10.96
2022-11-05T04:52:56.120Z,10.93
2022-11-05T04:55:24.417Z,10.87
2022-11-05T04:57:53.900Z,10.82
2022-11-05T05:00:23.721Z,10.78
2022-11-05T05:02:51.745Z,10.75
2022-11-05T05:05:19.787Z,10.75
2022-11-05T05:07:47.742Z,10.70
2022-11-05T05:10:17.098Z,10.67
2022-11-05T05:12:45.086Z,10.63
2022-11-05T05:15:13.112Z,10.57
2022-11-05T05:17:41.199Z,10.57
2022-11-05T05:20:27.055Z,10.58
2022-11-05T05:22:55.962Z,10.58
2022-11-05T05:25:25.495Z,10.60
2022-11-05T05:27:53.484Z,10.61
2022-11-05T05:30:21.596Z,10.60
2022-11-05T05:32:49.590Z,10.61
2022-11-05T05:35:18.234Z,10.62
2022-11-05T05:37:46.342Z,10.64
2022-11-05T05:40:14.329Z,10.63
2022-11-05T05:42:44.121Z,10.64
2022-11-05T05:45:12.878Z,10.65
2022-11-05T05:47:41.071Z,10.62
2022-11-05T05:50:09.444Z,10.62
2022-11-05T05:52:37.348Z,10.64
2022-11-05T05:55:06.033Z,10.60
2022-11-05T05:57:35.464Z,10.58
2022-11-05T06:00:06.310Z,10.58
2022-11-05T06:02:34.681Z,10.57
2022-11-05T06:05:02.736Z,10.58
2022-11-05T06:07:34.515Z,10.57
2022-11-05T06:10:05.836Z,10.59
2022-11-05T06:12:34.128Z,10.58
2022-11-05T06:15:02.110Z,10.58
2022-11-05T06:17:31.482Z,10.55
2022-11-05T06:19:59.470Z,10.52
2022-11-05T06:22:27.446Z,10.53
2022-11-05T06:24:55.485Z,10.54
2022-11-05T06:27:24.650Z,10.56
2022-11-05T06:29:52.584Z,10.55
2022-11-05T06:32:20.607Z,10.54
2022-11-05T06:34:50.094Z,10.54
2022-11-05T06:37:18.013Z,10.53
2022-11-05T06:39:45.983Z,10.50
2022-11-05T06:42:18.712Z,10.47
2022-11-05T06:44:47.005Z,10.46
2022-11-05T06:47:14.945Z,10.48
2022-11-05T06:49:42.866Z,10.46
2022-11-05T06:52:13.167Z,10.46
2022-11-05T06:54:42.451Z,10.47
2022-11-05T06:57:11.576Z,10.47
2022-11-05T06:59:40.258Z,10.49
2022-11-05T07:02:12.326Z,10.52
2022-11-05T07:04:40.471Z,10.53
2022-11-05T07:07:08.613Z,10.51
2022-11-05T07:09:40.583Z,10.51
2022-11-05T07:12:09.066Z,10.46
2022-11-05T07:14:37.138Z,10.41
2022-11-05T07:17:05.351Z,10.41
2022-11-05T07:19:33.375Z,10.42
2022-11-05T07:22:01.385Z,10.38
2022-11-05T07:24:29.364Z,10.37
2022-11-05T07:27:00.623Z,10.39
2022-11-05T07:29:28.592Z,10.40
2022-11-05T07:31:56.515Z,10.40
2022-11-05T07:34:24.499Z,10.42
2022-11-05T07:36:53.376Z,10.42
2022-11-05T07:39:21.706Z,10.43
2022-11-05T07:41:49.750Z,10.43
2022-11-05T07:44:19.133Z,10.43
2022-11-05T07:46:47.127Z,10.42
2022-11-05T07:49:16.260Z,10.41
2022-11-05T07:51:44.632Z,10.38
2022-11-05T07:54:12.880Z,10.35
2022-11-05T07:56:40.873Z,10.36
2022-11-05T07:59:09.102Z,10.37
2022-11-05T08:01:38.736Z,10.38
2022-11-05T08:04:06.842Z,10.40
2022-11-05T08:06:34.828Z,10.38
2022-11-05T08:09:02.755Z,10.38
2022-11-05T08:11:30.711Z,10.39
2022-11-05T08:13:58.716Z,10.38
2022-11-05T08:16:26.691Z,10.39
2022-11-05T08:18:56.142Z,10.40
2022-11-05T08:21:24.134Z,10.38
2022-11-05T08:23:52.081Z,10.38
2022-11-05T08:26:20.702Z,10.38
2022-11-05T08:28:48.804Z,10.38
2022-11-05T08:31:18.258Z,10.38
2022-11-05T08:33:46.174Z,10.40
2022-11-05T08:36:16.615Z,10.40
2022-11-05T08:38:44.563Z,10.40
2022-11-05T08:41:13.821Z,10.42
2022-11-05T08:43:41.822Z,10.42
2022-11-05T08:46:09.966Z,10.43
2022-11-05T08:48:38.032Z,10.45
2022-11-05T08:51:06.283Z,10.45
2022-11-05T08:53:35.618Z,10.42
2022-11-05T08:56:04.056Z,10.42
2022-11-05T08:58:32.924Z,10.43
2022-11-05T09:01:04.967Z,10.44
2022-11-05T09:03:33.727Z,10.45
2022-11-05T09:06:02.077Z,10.47
2022-11-05T09:08:30.069Z,10.48
2022-11-05T09:10:59.986Z,10.49
2022-11-05T09:13:28.393Z,10.49
2022-11-05T09:15:56.576Z,10.51
2022-11-05T09:18:24.973Z,10.52
2022-11-05T09:20:53.867Z,10.53
2022-11-05T09:23:21.867Z,10.52
2022-11-05T09:25:50.001Z,10.52
2022-11-05T09:28:21.551Z,10.55
2022-11-05T09:30:51.396Z,10.60
2022-11-05T09:33:21.467Z,10.66
2022-11-05T09:35:49.516Z,10.68
2022-11-05T09:38:18.339Z,10.74
2022-11-05T09:41:00.480Z,10.82
2022-11-05T09:43:34.901Z,10.84
2022-11-05T09:46:08.704Z,10.87
2022-11-05T09:48:39.502Z,10.90
2022-11-05T09:51:08.117Z,10.90
2022-11-05T09:53:41.206Z,10.92
2022-11-05T09:56:21.175Z,10.93
2022-11-05T09:58:54.349Z,10.96
2022-11-05T10:01:26.960Z,10.99
2022-11-05T10:03:58.089Z,11.02
2022-11-05T10:06:27.923Z,11.04
2022-11-05T10:09:04.723Z,11.06
2022-11-05T10:11:38.364Z,11.07
2022-11-05T10:14:16.574Z,11.08
2022-11-05T10:16:49.910Z,11.09
2022-11-05T10:19:24.546Z,11.06
2022-11-05T10:22:11.469Z,10.99
2022-11-05T10:24:42.928Z,10.92
2022-11-05T10:27:18.519Z,10.93
2022-11-05T10:29:49.353Z,10.96
2022-11-05T10:32:27.788Z,11.01
2022-11-05T10:34:59.280Z,11.06
2022-11-05T10:37:29.014Z,11.10
2022-11-05T10:39:57.690Z,11.14
2022-11-05T10:42:39.835Z,11.21
2022-11-05T10:45:18.827Z,11.27
2022-11-05T10:47:59.169Z,11.32
2022-11-05T10:50:28.883Z,11.32
2022-11-05T10:53:00.344Z,11.26
2022-11-05T10:55:30.992Z,11.23
2022-11-05T10:58:10.720Z,11.22
2022-11-05T11:00:40.653Z,11.25
2022-11-05T11:03:34.992Z,11.31
2022-11-05T11:06:05.407Z,11.33
2022-11-05T11:08:36.759Z,11.37
2022-11-05T11:11:09.076Z,11.37
2022-11-05T11:13:51.767Z,11.41
2022-11-05T11:16:24.270Z,11.43
2022-11-05T11:18:55.226Z,11.43
2022-11-05T11:21:24.420Z,11.48
2022-11-05T11:23:57.348Z,11.48
2022-11-05T11:26:27.694Z,11.46
2022-11-05T11:29:01.278Z,11.42
2022-11-05T11:31:38.331Z,11.41
2022-11-05T11:34:13.264Z,11.44
2022-11-05T11:36:45.532Z,11.46
2022-11-05T11:39:17.734Z,11.45
2022-11-05T11:41:47.752Z,11.39
2022-11-05T11:44:20.099Z,11.41
2022-11-05T11:46:52.368Z,11.40
2022-11-05T11:49:35.226Z,11.39
2022-11-05T11:52:06.334Z,11.39
2022-11-05T11:54:35.429Z,11.35
2022-11-05T11:57:04.117Z,11.34
2022-11-05T12:00:02.026Z,11.36
2022-11-05T12:03:02.258Z,11.40
2022-11-05T12:05:36.507Z,11.44
2022-11-05T12:08:17.973Z,11.40
2022-11-05T12:11:01.927Z,11.35
2022-11-05T12:13:53.850Z,11.33
2022-11-05T12:16:54.135Z,11.32
2022-11-05T12:19:34.418Z,11.36
2022-11-05T12:22:11.972Z,11.39
2022-11-05T12:25:19.012Z,11.43
2022-11-05T12:28:04.570Z,11.47
2022-11-05T12:30:42.977Z,11.51
2022-11-05T12:33:25.618Z,11.55
2022-11-05T12:36:08.286Z,11.62
2022-11-05T12:38:52.886Z,11.66
2022-11-05T12:41:27.754Z,11.67
2022-11-05T12:44:15.717Z,11.68
2022-11-05T12:46:54.503Z,11.74
2022-11-05T12:49:48.760Z,11.78
2022-11-05T12:52:45.298Z,11.79
2022-11-05T12:55:19.410Z,11.74
2022-11-05T12:57:50.554Z,11.66
2022-11-05T13:00:21.764Z,11.57
2022-11-05T13:02:56.330Z,11.46
2022-11-05T13:05:35.487Z,11.35
2022-11-05T13:08:10.447Z,11.29
2022-11-05T13:10:42.482Z,11.25
2022-11-05T13:13:24.558Z,11.20
2022-11-05T13:15:56.380Z,11.20
2022-11-05T13:18:31.703Z,11.21
2022-11-05T13:21:02.945Z,11.27
2022-11-05T13:23:36.935Z,11.31
2022-11-05T13:26:21.501Z,11.34
2022-11-05T13:28:55.879Z,11.32
2022-11-05T13:31:36.833Z,11.32
2022-11-05T13:34:11.062Z,11.29
2022-11-05T13:37:06.867Z,11.27
2022-11-05T13:39:39.530Z,11.26
2022-11-05T13:42:49.538Z,11.29
2022-11-05T13:45:33.043Z,11.25
2022-11-05T13:48:18.862Z,11.22
2022-11-05T13:51:19.785Z,11.17
2022-11-05T13:54:03.437Z,11.16
2022-11-05T13:56:47.935Z,11.11
2022-11-05T13:59:36.008Z,11.08
2022-11-05T14:02:11.707Z,11.07
2022-11-05T14:04:46.124Z,11.05
2022-11-05T14:07:19.497Z,11.07
2022-11-05T14:09:48.603Z,11.07
2022-11-05T14:12:24.531Z,11.06
2022-11-05T14:14:59.171Z,11.04
2022-11-05T14:17:32.300Z,11.02
2022-11-05T14:20:26.230Z,10.96
2022-11-05T14:22:54.705Z,10.87
2022-11-05T14:25:54.270Z,10.79
2022-11-05T14:28:46.408Z,10.64
2022-11-05T14:34:54.748Z,10.45
2022-11-05T14:37:28.888Z,10.35
2022-11-05T14:39:57.952Z,10.29
2022-11-05T14:42:29.765Z,10.22
2022-11-05T14:45:22.030Z,10.16
2022-11-05T14:47:56.305Z,10.12
2022-11-05T14:50:31.824Z,10.09
2022-11-05T14:53:13.276Z,10.09
2022-11-05T14:55:44.705Z,10.10
2022-11-05T14:58:36.595Z,10.08
2022-11-05T15:01:08.014Z,10.05
2022-11-05T15:04:04.079Z,10.00
2022-11-05T15:06:36.904Z,9.91
2022-11-05T15:09:28.215Z,9.85
2022-11-05T15:12:05.843Z,9.76
2022-11-05T15:14:37.756Z,9.67
2022-11-05T15:17:18.482Z,9.60
2022-11-05T15:19:48.133Z,9.54
2022-11-05T15:22:35.917Z,9.47
2022-11-05T15:25:05.836Z,9.43
2022-11-05T15:27:48.140Z,9.37
2022-11-05T15:30:17.989Z,9.36
2022-11-05T15:32:48.056Z,9.32
2022-11-05T15:35:33.100Z,9.31
2022-11-05T15:38:02.718Z,9.31
2022-11-05T15:40:32.879Z,9.28
2022-11-05T15:43:14.104Z,9.27
2022-11-05T15:45:42.569Z,9.26
2022-11-05T15:48:16.187Z,9.24
2022-11-05T15:50:44.576Z,9.18
2022-11-05T15:53:47.479Z,9.16
2022-11-05T15:56:22.987Z,9.11
2022-11-05T15:58:53.755Z,9.08
2022-11-05T16:01:23.940Z,9.06
2022-11-05T16:03:54.572Z,9.05
2022-11-05T16:06:34.297Z,9.05
2022-11-05T16:09:02.806Z,9.05
2022-11-05T16:11:31.177Z,9.03
2022-11-05T16:14:16.225Z,9.01
2022-11-05T16:16:45.335Z,8.94
2022-11-05T16:19:40.509Z,8.87
2022-11-05T16:22:09.051Z,8.82
2022-11-05T16:24:37.162Z,8.72
2022-11-05T16:27:05.790Z,8.67
2022-11-05T16:29:37.121Z,8.62
2022-11-05T16:32:07.681Z,8.57
2022-11-05T16:34:41.332Z,8.51
2022-11-05T16:37:13.407Z,8.47
2022-11-05T16:39:41.761Z,8.42
2022-11-05T16:42:48.296Z,8.36
2022-11-05T16:45:18.843Z,8.33
2022-11-05T16:47:47.515Z,8.29
2022-11-05T16:50:24.487Z,8.26
2022-11-05T16:52:52.870Z,8.22
2022-11-05T16:55:21.296Z,8.18
2022-11-05T16:57:52.426Z,8.17
2022-11-05T17:00:22.179Z,8.13
2022-11-05T17:02:50.636Z,8.11
2022-11-05T17:05:23.354Z,8.09
2022-11-05T17:07:53.430Z,8.05
2022-11-05T17:10:23.176Z,8.02
2022-11-05T17:12:52.138Z,7.98
2022-11-05T17:15:23.671Z,7.94
2022-11-05T17:17:52.343Z,7.92
2022-11-05T17:20:39.428Z,7.89
2022-11-05T17:23:10.206Z,7.88
2022-11-05T17:25:38.961Z,7.85
2022-11-05T17:28:07.534Z,7.86
2022-11-05T17:30:41.389Z,7.84
2022-11-05T17:33:12.060Z,7.78
2022-11-05T17:35:43.255Z,7.79
2022-11-05T17:38:11.833Z,7.78
2022-11-05T17:40:40.798Z,7.75
2022-11-05T17:43:09.947Z,7.74
2022-11-05T17:45:43.628Z,7.72
2022-11-05T17:48:12.374Z,7.71
2022-11-05T17:50:46.154Z,7.68
2022-11-05T17:53:14.929Z,7.68
2022-11-05T17:55:43.649Z,7.66
2022-11-05T17:58:12.131Z,7.63
2022-11-05T18:00:41.318Z,7.61
2022-11-05T18:03:10.852Z,7.61
2022-11-05T18:05:40.134Z,7.63
2022-11-05T18:08:10.219Z,7.65
2022-11-05T18:10:39.402Z,7.66
2022-11-05T18:13:07.432Z,7.68
2022-11-05T18:15:38.111Z,7.69
2022-11-05T18:18:06.138Z,7.70
2022-11-05T18:20:34.550Z,7.72
2022-11-05T18:23:03.407Z,7.74
2022-11-05T18:25:40.489Z,7.76
2022-11-05T18:28:09.360Z,7.77
2022-11-05T18:30:40.226Z,7.78
2022-11-05T18:33:09.481Z,7.78
2022-11-05T18:35:42.215Z,7.78
2022-11-05T18:38:10.546Z,7.79
2022-11-05T18:40:40.419Z,7.80
2022-11-05T18:43:08.659Z,7.81
2022-11-05T18:45:36.648Z,7.79
2022-11-05T18:48:05.302Z,7.79
2022-11-05T18:50:33.385Z,7.81
2022-11-05T18:53:01.374Z,7.83
2022-11-05T18:55:29.478Z,7.83
2022-11-05T18:57:58.854Z,7.82
2022-11-05T19:00:27.948Z,7.80
2022-11-05T19:02:56.272Z,7.79
2022-11-05T19:05:29.515Z,7.79
2022-11-05T19:07:58.329Z,7.79
2022-11-05T19:10:26.506Z,7.82
2022-11-05T19:12:54.793Z,7.82
2022-11-05T19:15:24.186Z,7.84
2022-11-05T19:17:52.183Z,7.84
2022-11-05T19:20:20.211Z,7.83
2022-11-05T19:22:48.259Z,7.81
2022-11-05T19:25:16.273Z,7.84
2022-11-05T19:27:44.524Z,7.83
2022-11-05T19:30:14.012Z,7.81
2022-11-05T19:32:43.517Z,7.81
2022-11-05T19:35:11.616Z,7.79
2022-11-05T19:37:39.734Z,7.77
2022-11-05T19:40:09.438Z,7.76
2022-11-05T19:42:37.606Z,7.73
2022-11-05T19:45:30.446Z,7.72
2022-11-05T19:47:55.786Z,7.72
2022-11-05T19:50:23.798Z,7.71
2022-11-05T19:52:51.860Z,7.70
2022-11-05T19:55:20.106Z,7.69
2022-11-05T19:57:48.052Z,7.69
2022-11-05T20:00:18.117Z,7.68
2022-11-05T20:02:46.499Z,7.66
2022-11-05T20:05:18.166Z,7.66
2022-11-05T20:07:51.422Z,7.64
2022-11-05T20:10:21.270Z,7.60
2022-11-05T20:12:49.272Z,7.58
2022-11-05T20:15:19.134Z,7.56
2022-11-05T20:17:50.330Z,7.53
2022-11-05T20:20:20.764Z,7.52
2022-11-05T20:22:48.712Z,7.50
2022-11-05T20:25:17.228Z,7.48
2022-11-05T20:27:45.455Z,7.47
2022-11-05T20:30:14.733Z,7.47
2022-11-05T20:32:42.744Z,7.45
2022-11-05T20:35:11.377Z,7.45
2022-11-05T20:37:42.976Z,7.43
2022-11-05T20:40:14.103Z,7.41
2022-11-05T20:42:42.722Z,7.42
2022-11-05T20:45:11.916Z,7.41
2022-11-05T20:47:41.404Z,7.40
2022-11-05T20:50:10.827Z,7.40
2022-11-05T20:52:40.480Z,7.40
2022-11-05T20:55:09.743Z,7.39
2022-11-05T20:57:38.479Z,7.40
2022-11-05T21:00:07.987Z,7.40
2022-11-05T21:02:36.991Z,7.41
2022-11-05T21:05:07.487Z,7.42
2022-11-05T21:07:36.024Z,7.42
2022-11-05T21:10:06.976Z,7.44
2022-11-05T21:12:35.575Z,7.42
2022-11-05T21:15:03.671Z,7.41
2022-11-05T21:17:32.436Z,7.42
2022-11-05T21:20:00.440Z,7.42
2022-11-05T21:22:29.074Z,7.42
2022-11-05T21:24:58.033Z,7.40
2022-11-05T21:27:27.536Z,7.41
2022-11-05T21:29:55.453Z,7.41
2022-11-05T21:32:24.139Z,7.42
2022-11-05T21:34:52.059Z,7.42
2022-11-05T21:37:20.437Z,7.43
2022-11-05T21:39:48.379Z,7.43
2022-11-05T21:42:16.441Z,7.41
2022-11-05T21:44:45.816Z,7.41
2022-11-05T21:47:13.932Z,7.40
2022-11-05T21:49:42.070Z,7.40
2022-11-05T21:52:29.909Z,7.39
2022-11-05T21:55:15.483Z,7.36
2022-11-05T21:58:01.330Z,7.36
2022-11-05T22:00:31.185Z,7.34
2022-11-05T22:03:00.064Z,7.34
2022-11-05T22:05:33.644Z,7.33
2022-11-05T22:08:01.852Z,7.34
2022-11-05T22:10:29.859Z,7.33
2022-11-05T22:12:57.817Z,7.33
2022-11-05T22:15:26.134Z,7.33
2022-11-05T22:18:00.258Z,7.33
2022-11-05T22:20:28.240Z,7.32
2022-11-05T22:22:56.191Z,7.30
2022-11-05T22:25:24.318Z,7.27
2022-11-05T22:27:52.594Z,7.25
2022-11-05T22:30:21.947Z,7.24
2022-11-05T22:32:49.969Z,7.23
2022-11-05T22:35:19.410Z,7.19
2022-11-05T22:37:47.376Z,7.17
2022-11-05T22:40:15.400Z,7.15
2022-11-05T22:42:43.605Z,7.12
2022-11-05T22:45:12.031Z,7.10
2022-11-05T22:47:42.507Z,7.10
2022-11-05T22:50:11.293Z,7.10
2022-11-05T22:52:42.799Z,7.10
2022-11-05T22:55:11.155Z,7.11
2022-11-05T22:57:39.146Z,7.13
2022-11-05T23:00:15.338Z,7.14
2022-11-05T23:02:43.531Z,7.15
2022-11-05T23:05:11.556Z,7.18
2022-11-05T23:07:58.759Z,7.18
2022-11-05T23:10:44.354Z,7.21
2022-11-05T23:13:12.285Z,7.20
2022-11-05T23:15:57.484Z,7.22
2022-11-05T23:18:42.966Z,7.23
2022-11-05T23:21:28.279Z,7.22
2022-11-05T23:24:05.507Z,7.22
2022-11-05T23:26:54.049Z,7.24
2022-11-05T23:29:25.384Z,7.28
2022-11-05T23:32:12.045Z,7.29
2022-11-05T23:34:40.638Z,7.29
2022-11-05T23:37:26.403Z,7.31
2022-11-05T23:39:56.688Z,7.33
2022-11-05T23:42:42.169Z,7.33
2022-11-05T23:45:28.486Z,7.36
2022-11-05T23:48:14.350Z,7.41
2022-11-05T23:50:43.095Z,7.44
2022-11-05T23:53:11.700Z,7.47
2022-11-05T23:55:41.100Z,7.50
2022-11-05T23:58:09.585Z,7.54
